Terminal Aerodrome Forecast
Issued by NWS

Home | Current Version | Previous Version | Text Only | Print | Product List | Glossary On
Versions: 1 2 3 4 5 6 7 8 9 10 11 12 13 14 15
000
FTUS42 KILM 261100
TAFCRE
TAF
KCRE 261121Z 2612/2712 25009KT P6SM SCT060 BKN120
     FM261700 27012G19KT P6SM SCT025 SCT100
     FM262100 28011G18KT P6SM VCSH BKN035 OVC100
     FM270300 30010G16KT P6SM SCT025=

USA.gov is the U.S. government's official web portal to all federal, state and local government web resources and services.